Terminal Aerodrome Forecast
Issued by NWS

Home | Current Version | Previous Version | Text Only | Print | Product List | Glossary Off
Versions: 1 2 3 4 5 6 7 8 9 10 11 12 13 14 15 16 17 18 19 20 21 22

000
FTUS43 KGRB 201100
TAFMTW
TAF
KMTW 201135Z 2012/2112 22010KT P6SM SCT070 BKN100 WS015/25040KT
     FM201500 24010G16KT P6SM VCSH SCT030 BKN100
     FM201900 26011G18KT P6SM SCT035 SCT100
     FM202300 29004KT P6SM SCT100 BKN250
     FM210700 36005KT 5SM -SHRA BR SCT009 OVC015
      TEMPO 2108/2112 3SM SHRA OVC009=

USA.gov is the U.S. government's official web portal to all federal, state and local government web resources and services.